sensor_id;sensor_type;location;lat;lon;timestamp;pressure;altitude;pressure_sealevel;temperature;humidity
13209;BME280;6669;42.678;23.332;2023-03-20T00:00:57;94858.19;;;6.99;100.00
13209;BME280;6669;42.678;23.332;2023-03-20T00:03:25;94857.66;;;6.96;100.00
13209;BME280;6669;42.678;23.332;2023-03-20T00:05:53;94857.94;;;6.93;100.00
13209;BME280;6669;42.678;23.332;2023-03-20T00:08:21;94861.50;;;6.82;100.00
13209;BME280;6669;42.678;23.332;2023-03-20T00:10:49;94858.41;;;6.78;100.00
13209;BME280;6669;42.678;23.332;2023-03-20T00:13:21;94857.91;;;6.75;100.00
13209;BME280;6669;42.678;23.332;2023-03-20T00:15:53;94846.75;;;6.64;100.00
13209;BME280;6669;42.678;23.332;2023-03-20T00:18:22;94860.47;;;6.75;100.00
13209;BME280;6669;42.678;23.332;2023-03-20T00:20:51;94842.13;;;6.68;100.00
13209;BME280;6669;42.678;23.332;2023-03-20T00:23:19;94854.34;;;6.76;100.00
13209;BME280;6669;42.678;23.332;2023-03-20T00:25:47;94859.69;;;6.64;100.00
13209;BME280;6669;42.678;23.332;2023-03-20T00:28:36;94855.59;;;6.62;100.00
13209;BME280;6669;42.678;23.332;2023-03-20T00:31:14;94854.97;;;6.50;100.00
13209;BME280;6669;42.678;23.332;2023-03-20T00:33:46;94842.94;;;6.31;100.00
13209;BME280;6669;42.678;23.332;2023-03-20T00:36:13;94850.41;;;6.34;100.00
13209;BME280;6669;42.678;23.332;2023-03-20T00:38:41;94837.38;;;6.26;100.00
13209;BME280;6669;42.678;23.332;2023-03-20T00:41:20;94843.63;;;6.33;100.00
13209;BME280;6669;42.678;23.332;2023-03-20T00:43:51;94839.50;;;6.40;100.00
13209;BME280;6669;42.678;23.332;2023-03-20T00:46:21;94841.84;;;6.33;100.00
13209;BME280;6669;42.678;23.332;2023-03-20T00:48:50;94842.38;;;6.37;100.00
13209;BME280;6669;42.678;23.332;2023-03-20T00:51:18;94843.56;;;6.43;100.00
13209;BME280;6669;42.678;23.332;2023-03-20T00:53:46;94847.94;;;6.42;100.00
13209;BME280;6669;42.678;23.332;2023-03-20T00:56:29;94850.94;;;6.37;100.00
13209;BME280;6669;42.678;23.332;2023-03-20T00:58:59;94844.28;;;6.35;100.00
13209;BME280;6669;42.678;23.332;2023-03-20T01:01:29;94828.00;;;6.34;100.00
13209;BME280;6669;42.678;23.332;2023-03-20T01:03:58;94834.63;;;6.47;100.00
13209;BME280;6669;42.678;23.332;2023-03-20T01:06:27;94827.03;;;6.35;100.00
13209;BME280;6669;42.678;23.332;2023-03-20T01:08:56;94841.13;;;6.41;100.00
13209;BME280;6669;42.678;23.332;2023-03-20T01:11:25;94831.53;;;6.24;100.00
13209;BME280;6669;42.678;23.332;2023-03-20T01:13:54;94822.31;;;6.21;100.00
13209;BME280;6669;42.678;23.332;2023-03-20T01:16:24;94820.81;;;6.18;100.00
13209;BME280;6669;42.678;23.332;2023-03-20T01:18:54;94816.09;;;6.14;100.00
13209;BME280;6669;42.678;23.332;2023-03-20T01:21:22;94815.00;;;6.16;100.00
13209;BME280;6669;42.678;23.332;2023-03-20T01:23:50;94820.97;;;6.17;100.00
13209;BME280;6669;42.678;23.332;2023-03-20T01:26:21;94808.91;;;6.08;100.00
13209;BME280;6669;42.678;23.332;2023-03-20T01:28:50;94809.31;;;6.13;100.00
13209;BME280;6669;42.678;23.332;2023-03-20T01:31:18;94777.44;;;5.84;100.00
13209;BME280;6669;42.678;23.332;2023-03-20T01:33:46;94818.69;;;6.14;100.00
13209;BME280;6669;42.678;23.332;2023-03-20T01:36:19;94781.44;;;5.97;100.00
13209;BME280;6669;42.678;23.332;2023-03-20T01:38:53;94821.50;;;6.20;100.00
13209;BME280;6669;42.678;23.332;2023-03-20T01:41:23;94827.50;;;6.11;100.00
13209;BME280;6669;42.678;23.332;2023-03-20T01:43:51;94822.63;;;5.88;100.00
13209;BME280;6669;42.678;23.332;2023-03-20T01:46:23;94828.63;;;5.99;100.00
13209;BME280;6669;42.678;23.332;2023-03-20T01:49:06;94806.91;;;5.82;100.00
13209;BME280;6669;42.678;23.332;2023-03-20T01:51:35;94820.97;;;5.97;100.00
13209;BME280;6669;42.678;23.332;2023-03-20T01:54:06;94813.09;;;5.89;100.00
13209;BME280;6669;42.678;23.332;2023-03-20T01:56:38;94837.28;;;5.98;100.00
13209;BME280;6669;42.678;23.332;2023-03-20T01:59:10;94838.13;;;5.98;100.00
13209;BME280;6669;42.678;23.332;2023-03-20T02:01:39;94836.47;;;5.97;100.00
13209;BME280;6669;42.678;23.332;2023-03-20T02:04:09;94837.69;;;5.93;100.00
13209;BME280;6669;42.678;23.332;2023-03-20T02:06:40;94837.41;;;5.86;100.00
13209;BME280;6669;42.678;23.332;2023-03-20T02:09:10;94826.59;;;5.73;100.00
13209;BME280;6669;42.678;23.332;2023-03-20T02:11:39;94825.34;;;5.67;100.00
13209;BME280;6669;42.678;23.332;2023-03-20T02:14:08;94818.44;;;5.58;100.00
13209;BME280;6669;42.678;23.332;2023-03-20T02:16:37;94804.72;;;5.38;100.00
13209;BME280;6669;42.678;23.332;2023-03-20T02:19:08;94818.03;;;5.33;100.00
13209;BME280;6669;42.678;23.332;2023-03-20T02:22:24;94819.09;;;5.40;100.00
13209;BME280;6669;42.678;23.332;2023-03-20T02:28:32;94829.00;;;5.26;100.00
13209;BME280;6669;42.678;23.332;2023-03-20T02:31:20;94826.03;;;5.30;100.00
13209;BME280;6669;42.678;23.332;2023-03-20T02:34:28;94801.03;;;5.01;100.00
13209;BME280;6669;42.678;23.332;2023-03-20T02:37:43;94838.22;;;5.18;100.00
13209;BME280;6669;42.678;23.332;2023-03-20T02:40:22;94834.00;;;5.07;100.00
13209;BME280;6669;42.678;23.332;2023-03-20T02:42:56;94826.13;;;4.99;100.00
13209;BME280;6669;42.678;23.332;2023-03-20T02:45:27;94817.56;;;4.99;100.00
13209;BME280;6669;42.678;23.332;2023-03-20T02:48:05;94819.19;;;5.00;100.00
13209;BME280;6669;42.678;23.332;2023-03-20T02:50:45;94813.06;;;4.91;100.00
13209;BME280;6669;42.678;23.332;2023-03-20T02:53:23;94806.84;;;4.84;100.00
13209;BME280;6669;42.678;23.332;2023-03-20T02:55:58;94808.88;;;4.80;100.00
13209;BME280;6669;42.678;23.332;2023-03-20T02:58:34;94810.91;;;4.86;100.00
13209;BME280;6669;42.678;23.332;2023-03-20T03:01:09;94801.53;;;4.75;100.00
13209;BME280;6669;42.678;23.332;2023-03-20T03:03:45;94812.41;;;4.89;100.00
13209;BME280;6669;42.678;23.332;2023-03-20T03:06:17;94813.22;;;4.89;100.00
13209;BME280;6669;42.678;23.332;2023-03-20T03:08:54;94815.53;;;4.93;100.00
13209;BME280;6669;42.678;23.332;2023-03-20T03:11:25;94817.66;;;4.87;100.00
13209;BME280;6669;42.678;23.332;2023-03-20T03:13:54;94819.06;;;4.91;100.00
13209;BME280;6669;42.678;23.332;2023-03-20T03:16:26;94814.44;;;4.85;100.00
13209;BME280;6669;42.678;23.332;2023-03-20T03:19:02;94813.34;;;4.88;100.00
13209;BME280;6669;42.678;23.332;2023-03-20T03:21:34;94806.84;;;4.94;100.00
13209;BME280;6669;42.678;23.332;2023-03-20T03:24:05;94811.19;;;4.93;100.00
13209;BME280;6669;42.678;23.332;2023-03-20T03:26:35;94812.81;;;5.04;100.00
13209;BME280;6669;42.678;23.332;2023-03-20T03:29:10;94812.03;;;5.03;100.00
13209;BME280;6669;42.678;23.332;2023-03-20T03:31:39;94812.81;;;5.04;100.00
13209;BME280;6669;42.678;23.332;2023-03-20T03:34:11;94815.28;;;5.05;100.00
13209;BME280;6669;42.678;23.332;2023-03-20T03:36:47;94809.69;;;4.90;100.00
13209;BME280;6669;42.678;23.332;2023-03-20T03:39:24;94816.59;;;4.80;100.00
13209;BME280;6669;42.678;23.332;2023-03-20T03:41:57;94808.69;;;4.62;100.00
13209;BME280;6669;42.678;23.332;2023-03-20T03:44:32;94814.16;;;4.79;100.00
13209;BME280;6669;42.678;23.332;2023-03-20T03:47:04;94806.44;;;4.88;100.00
13209;BME280;6669;42.678;23.332;2023-03-20T03:49:36;94816.59;;;4.80;100.00
13209;BME280;6669;42.678;23.332;2023-03-20T03:52:09;94815.91;;;4.78;100.00
13209;BME280;6669;42.678;23.332;2023-03-20T03:54:43;94810.59;;;4.70;100.00
13209;BME280;6669;42.678;23.332;2023-03-20T03:57:14;94807.31;;;4.68;100.00
13209;BME280;6669;42.678;23.332;2023-03-20T03:59:45;94811.41;;;4.70;100.00
13209;BME280;6669;42.678;23.332;2023-03-20T04:02:15;94811.56;;;4.79;100.00
13209;BME280;6669;42.678;23.332;2023-03-20T04:04:47;94799.59;;;4.68;100.00
13209;BME280;6669;42.678;23.332;2023-03-20T04:07:17;94774.19;;;4.44;100.00
13209;BME280;6669;42.678;23.332;2023-03-20T04:09:46;94801.19;;;4.59;100.00
13209;BME280;6669;42.678;23.332;2023-03-20T04:12:35;94797.81;;;4.58;100.00
13209;BME280;6669;42.678;23.332;2023-03-20T04:15:04;94796.56;;;4.53;100.00
13209;BME280;6669;42.678;23.332;2023-03-20T04:17:33;94796.31;;;4.56;100.00
13209;BME280;6669;42.678;23.332;2023-03-20T04:20:04;94796.72;;;4.51;100.00
13209;BME280;6669;42.678;23.332;2023-03-20T04:22:32;94798.44;;;4.41;100.00
13209;BME280;6669;42.678;23.332;2023-03-20T04:25:04;94794.75;;;4.34;100.00
13209;BME280;6669;42.678;23.332;2023-03-20T04:27:32;94792.94;;;4.24;100.00
13209;BME280;6669;42.678;23.332;2023-03-20T04:30:00;94790.22;;;4.16;100.00
13209;BME280;6669;42.678;23.332;2023-03-20T04:32:28;94792.53;;;4.19;100.00
13209;BME280;6669;42.678;23.332;2023-03-20T04:34:56;94788.50;;;4.27;100.00
13209;BME280;6669;42.678;23.332;2023-03-20T04:37:24;94798.47;;;4.20;100.00
13209;BME280;6669;42.678;23.332;2023-03-20T04:39:52;94796.16;;;4.17;100.00
13209;BME280;6669;42.678;23.332;2023-03-20T04:42:21;94802.13;;;4.17;100.00
13209;BME280;6669;42.678;23.332;2023-03-20T04:44:49;94805.13;;;4.22;100.00
13209;BME280;6669;42.678;23.332;2023-03-20T04:47:17;94801.69;;;4.12;100.00
13209;BME280;6669;42.678;23.332;2023-03-20T04:49:45;94823.56;;;4.28;100.00
13209;BME280;6669;42.678;23.332;2023-03-20T04:52:13;94820.13;;;4.17;100.00
13209;BME280;6669;42.678;23.332;2023-03-20T04:54:41;94818.03;;;4.01;100.00
13209;BME280;6669;42.678;23.332;2023-03-20T04:57:09;94828.19;;;4.03;100.00
13209;BME280;6669;42.678;23.332;2023-03-20T04:59:38;94839.16;;;4.05;100.00
13209;BME280;6669;42.678;23.332;2023-03-20T05:02:06;94824.91;;;4.01;100.00
13209;BME280;6669;42.678;23.332;2023-03-20T05:04:34;94836.25;;;3.98;100.00
13209;BME280;6669;42.678;23.332;2023-03-20T05:07:02;94835.19;;;4.01;100.00
13209;BME280;6669;42.678;23.332;2023-03-20T05:09:30;94827.38;;;3.81;100.00
13209;BME280;6669;42.678;23.332;2023-03-20T05:11:58;94835.72;;;3.95;100.00
13209;BME280;6669;42.678;23.332;2023-03-20T05:14:26;94831.94;;;3.99;100.00
13209;BME280;6669;42.678;23.332;2023-03-20T05:16:55;94836.31;;;4.08;100.00
13209;BME280;6669;42.678;23.332;2023-03-20T05:19:23;94840.28;;;4.12;100.00
13209;BME280;6669;42.678;23.332;2023-03-20T05:21:51;94831.81;;;4.21;100.00
13209;BME280;6669;42.678;23.332;2023-03-20T05:24:19;94845.78;;;4.29;100.00
13209;BME280;6669;42.678;23.332;2023-03-20T05:26:47;94846.63;;;4.39;100.00
13209;BME280;6669;42.678;23.332;2023-03-20T05:29:15;94847.91;;;4.45;100.00
13209;BME280;6669;42.678;23.332;2023-03-20T05:31:43;94851.97;;;4.47;100.00
13209;BME280;6669;42.678;23.332;2023-03-20T05:34:12;94835.69;;;4.47;100.00
13209;BME280;6669;42.678;23.332;2023-03-20T05:36:40;94847.81;;;4.56;100.00
13209;BME280;6669;42.678;23.332;2023-03-20T05:39:08;94849.59;;;4.65;100.00
13209;BME280;6669;42.678;23.332;2023-03-20T05:41:37;94848.53;;;4.68;100.00
13209;BME280;6669;42.678;23.332;2023-03-20T05:44:05;94847.78;;;4.87;100.00
13209;BME280;6669;42.678;23.332;2023-03-20T05:46:33;94846.31;;;5.04;100.00
13209;BME280;6669;42.678;23.332;2023-03-20T05:49:01;94847.00;;;5.06;100.00
13209;BME280;6669;42.678;23.332;2023-03-20T05:51:30;94847.72;;;5.08;100.00
13209;BME280;6669;42.678;23.332;2023-03-20T05:53:58;94855.75;;;5.24;100.00
13209;BME280;6669;42.678;23.332;2023-03-20T05:56:26;94854.91;;;5.24;100.00
13209;BME280;6669;42.678;23.332;2023-03-20T05:58:54;94856.28;;;5.28;100.00
13209;BME280;6669;42.678;23.332;2023-03-20T06:01:22;94854.13;;;5.33;100.00
13209;BME280;6669;42.678;23.332;2023-03-20T06:03:49;94851.00;;;5.49;100.00
13209;BME280;6669;42.678;23.332;2023-03-20T06:06:17;94843.03;;;5.52;100.00
13209;BME280;6669;42.678;23.332;2023-03-20T06:08:47;94849.94;;;5.62;100.00
13209;BME280;6669;42.678;23.332;2023-03-20T06:11:15;94847.75;;;5.67;100.00
13209;BME280;6669;42.678;23.332;2023-03-20T06:13:43;94825.09;;;5.61;100.00
13209;BME280;6669;42.678;23.332;2023-03-20T06:16:11;94849.50;;;5.76;100.00
13209;BME280;6669;42.678;23.332;2023-03-20T06:18:39;94848.97;;;5.82;100.00
13209;BME280;6669;42.678;23.332;2023-03-20T06:21:07;94852.22;;;5.94;100.00
13209;BME280;6669;42.678;23.332;2023-03-20T06:23:35;94843.25;;;5.88;100.00
13209;BME280;6669;42.678;23.332;2023-03-20T06:26:04;94854.94;;;5.93;100.00
13209;BME280;6669;42.678;23.332;2023-03-20T06:28:32;94859.56;;;6.09;100.00
13209;BME280;6669;42.678;23.332;2023-03-20T06:31:00;94862.41;;;6.15;100.00
13209;BME280;6669;42.678;23.332;2023-03-20T06:33:28;94854.66;;;6.25;100.00
13209;BME280;6669;42.678;23.332;2023-03-20T06:35:56;94849.34;;;6.27;100.00
13209;BME280;6669;42.678;23.332;2023-03-20T06:38:24;94854.59;;;6.35;100.00
13209;BME280;6669;42.678;23.332;2023-03-20T06:40:52;94858.81;;;6.46;100.00
13209;BME280;6669;42.678;23.332;2023-03-20T06:43:22;94860.13;;;6.60;100.00
13209;BME280;6669;42.678;23.332;2023-03-20T06:45:50;94852.94;;;6.53;100.00
13209;BME280;6669;42.678;23.332;2023-03-20T06:48:18;94862.38;;;6.73;100.00
13209;BME280;6669;42.678;23.332;2023-03-20T06:50:47;94853.75;;;6.82;100.00
13209;BME280;6669;42.678;23.332;2023-03-20T06:53:16;94832.28;;;6.81;100.00
13209;BME280;6669;42.678;23.332;2023-03-20T06:55:45;94842.28;;;6.94;100.00
13209;BME280;6669;42.678;23.332;2023-03-20T06:58:13;94823.84;;;7.07;100.00
13209;BME280;6669;42.678;23.332;2023-03-20T07:00:43;94843.56;;;7.36;100.00
13209;BME280;6669;42.678;23.332;2023-03-20T07:03:12;94845.03;;;7.57;100.00
13209;BME280;6669;42.678;23.332;2023-03-20T07:05:41;94843.03;;;7.68;100.00
13209;BME280;6669;42.678;23.332;2023-03-20T07:08:10;94823.69;;;7.73;100.00
13209;BME280;6669;42.678;23.332;2023-03-20T07:10:38;94829.06;;;7.79;100.00
13209;BME280;6669;42.678;23.332;2023-03-20T07:13:06;94840.13;;;7.90;100.00
13209;BME280;6669;42.678;23.332;2023-03-20T07:15:35;94834.53;;;7.94;100.00
13209;BME280;6669;42.678;23.332;2023-03-20T07:18:05;94836.31;;;8.20;100.00
13209;BME280;6669;42.678;23.332;2023-03-20T07:20:34;94814.56;;;8.13;100.00
13209;BME280;6669;42.678;23.332;2023-03-20T07:23:01;94830.78;;;8.41;100.00
13209;BME280;6669;42.678;23.332;2023-03-20T07:25:29;94832.81;;;8.56;100.00
13209;BME280;6669;42.678;23.332;2023-03-20T07:28:08;94834.88;;;8.78;100.00
13209;BME280;6669;42.678;23.332;2023-03-20T07:30:36;94833.75;;;8.81;100.00
13209;BME280;6669;42.678;23.332;2023-03-20T07:33:05;94829.91;;;8.93;100.00
13209;BME280;6669;42.678;23.332;2023-03-20T07:35:33;94831.69;;;8.93;100.00
13209;BME280;6669;42.678;23.332;2023-03-20T07:38:02;94831.56;;;9.03;100.00
13209;BME280;6669;42.678;23.332;2023-03-20T07:40:30;94832.75;;;9.16;100.00
13209;BME280;6669;42.678;23.332;2023-03-20T07:42:58;94818.31;;;9.14;100.00
13209;BME280;6669;42.678;23.332;2023-03-20T07:45:26;94836.97;;;9.26;100.00
13209;BME280;6669;42.678;23.332;2023-03-20T07:47:54;94838.81;;;9.42;100.00
13209;BME280;6669;42.678;23.332;2023-03-20T07:50:24;94831.19;;;9.48;100.00
13209;BME280;6669;42.678;23.332;2023-03-20T07:52:52;94836.06;;;9.52;100.00
13209;BME280;6669;42.678;23.332;2023-03-20T07:55:20;94838.66;;;9.43;100.00
13209;BME280;6669;42.678;23.332;2023-03-20T07:57:48;94837.03;;;9.51;100.00
13209;BME280;6669;42.678;23.332;2023-03-20T08:00:17;94831.84;;;9.59;100.00
13209;BME280;6669;42.678;23.332;2023-03-20T08:02:46;94828.94;;;9.62;100.00
13209;BME280;6669;42.678;23.332;2023-03-20T08:05:15;94829.75;;;9.71;100.00
13209;BME280;6669;42.678;23.332;2023-03-20T08:07:45;94831.56;;;9.87;100.00
13209;BME280;6669;42.678;23.332;2023-03-20T08:10:13;94816.94;;;9.77;100.00
13209;BME280;6669;42.678;23.332;2023-03-20T08:12:42;94807.53;;;9.85;100.00
13209;BME280;6669;42.678;23.332;2023-03-20T08:15:10;94827.31;;;10.19;100.00
13209;BME280;6669;42.678;23.332;2023-03-20T08:17:41;94827.78;;;10.30;100.00
13209;BME280;6669;42.678;23.332;2023-03-20T08:20:10;94826.50;;;10.18;100.00
13209;BME280;6669;42.678;23.332;2023-03-20T08:22:38;94814.97;;;10.29;100.00
13209;BME280;6669;42.678;23.332;2023-03-20T08:25:09;94830.84;;;10.51;100.00
13209;BME280;6669;42.678;23.332;2023-03-20T08:27:37;94835.22;;;10.67;100.00
13209;BME280;6669;42.678;23.332;2023-03-20T08:30:07;94827.72;;;10.72;100.00
13209;BME280;6669;42.678;23.332;2023-03-20T08:32:35;94839.22;;;10.86;100.00
13209;BME280;6669;42.678;23.332;2023-03-20T08:35:05;94820.06;;;10.78;100.00
13209;BME280;6669;42.678;23.332;2023-03-20T08:37:47;94827.31;;;10.91;100.00
13209;BME280;6669;42.678;23.332;2023-03-20T08:40:17;94827.63;;;10.96;100.00
13209;BME280;6669;42.678;23.332;2023-03-20T08:42:45;94834.69;;;11.11;100.00
13209;BME280;6669;42.678;23.332;2023-03-20T08:45:13;94836.63;;;11.17;100.00
13209;BME280;6669;42.678;23.332;2023-03-20T08:47:42;94822.53;;;11.11;100.00
13209;BME280;6669;42.678;23.332;2023-03-20T08:50:10;94832.78;;;11.36;100.00
13209;BME280;6669;42.678;23.332;2023-03-20T08:52:38;94828.03;;;11.48;100.00
13209;BME280;6669;42.678;23.332;2023-03-20T08:55:09;94810.47;;;11.42;99.51
13209;BME280;6669;42.678;23.332;2023-03-20T08:57:39;94812.16;;;11.58;99.98
13209;BME280;6669;42.678;23.332;2023-03-20T09:00:09;94822.69;;;11.88;99.27
13209;BME280;6669;42.678;23.332;2023-03-20T09:02:38;94821.03;;;11.95;97.72
13209;BME280;6669;42.678;23.332;2023-03-20T09:05:07;94824.91;;;11.99;95.52
13209;BME280;6669;42.678;23.332;2023-03-20T09:07:35;94813.00;;;12.20;93.95
13209;BME280;6669;42.678;23.332;2023-03-20T09:10:04;94812.47;;;12.24;93.40
13209;BME280;6669;42.678;23.332;2023-03-20T09:12:32;94804.38;;;12.34;92.08
13209;BME280;6669;42.678;23.332;2023-03-20T09:15:04;94808.38;;;12.60;92.03
13209;BME280;6669;42.678;23.332;2023-03-20T09:17:32;94806.31;;;12.70;91.91
13209;BME280;6669;42.678;23.332;2023-03-20T09:20:00;94770.59;;;12.56;91.04
13209;BME280;6669;42.678;23.332;2023-03-20T09:22:28;94800.06;;;13.01;89.78
13209;BME280;6669;42.678;23.332;2023-03-20T09:24:56;94788.97;;;13.14;89.10
13209;BME280;6669;42.678;23.332;2023-03-20T09:27:24;94786.13;;;13.31;87.86
13209;BME280;6669;42.678;23.332;2023-03-20T09:29:52;94784.50;;;13.45;86.15
13209;BME280;6669;42.678;23.332;2023-03-20T09:32:21;94777.38;;;13.53;84.40
13209;BME280;6669;42.678;23.332;2023-03-20T09:34:49;94783.13;;;13.70;83.49
13209;BME280;6669;42.678;23.332;2023-03-20T09:37:17;94783.31;;;13.69;83.02
13209;BME280;6669;42.678;23.332;2023-03-20T09:39:45;94778.34;;;13.74;81.67
13209;BME280;6669;42.678;23.332;2023-03-20T09:42:26;94764.34;;;13.60;81.74
13209;BME280;6669;42.678;23.332;2023-03-20T09:45:01;94765.78;;;13.84;81.98
13209;BME280;6669;42.678;23.332;2023-03-20T09:47:37;94756.63;;;13.95;81.65
13209;BME280;6669;42.678;23.332;2023-03-20T09:50:17;94748.75;;;14.17;80.17
13209;BME280;6669;42.678;23.332;2023-03-20T09:52:55;94737.47;;;14.16;79.32
13209;BME280;6669;42.678;23.332;2023-03-20T09:55:31;94750.78;;;14.57;79.91
13209;BME280;6669;42.678;23.332;2023-03-20T09:58:09;94730.25;;;14.53;76.91
13209;BME280;6669;42.678;23.332;2023-03-20T10:00:41;94723.34;;;14.87;79.50
13209;BME280;6669;42.678;23.332;2023-03-20T10:03:18;94728.66;;;15.08;75.24
13209;BME280;6669;42.678;23.332;2023-03-20T10:05:50;94718.41;;;15.13;74.65
13209;BME280;6669;42.678;23.332;2023-03-20T10:08:25;94712.59;;;15.24;73.73
13209;BME280;6669;42.678;23.332;2023-03-20T10:11:03;94692.25;;;15.40;75.10
13209;BME280;6669;42.678;23.332;2023-03-20T10:13:50;94711.88;;;15.97;71.89
13209;BME280;6669;42.678;23.332;2023-03-20T10:16:31;94684.28;;;16.60;69.34
13209;BME280;6669;42.678;23.332;2023-03-20T10:19:12;94701.97;;;17.56;66.86
13209;BME280;6669;42.678;23.332;2023-03-20T10:21:46;94695.19;;;18.17;63.72
13209;BME280;6669;42.678;23.332;2023-03-20T10:24:19;94672.34;;;18.55;61.54
13209;BME280;6669;42.678;23.332;2023-03-20T10:26:51;94699.03;;;18.95;58.77
13209;BME280;6669;42.678;23.332;2023-03-20T10:29:26;94691.75;;;19.52;57.66
13209;BME280;6669;42.678;23.332;2023-03-20T10:32:03;94691.56;;;19.65;56.04
13209;BME280;6669;42.678;23.332;2023-03-20T10:34:49;94682.56;;;20.08;54.38
13209;BME280;6669;42.678;23.332;2023-03-20T10:37:36;94681.75;;;20.32;53.46
13209;BME280;6669;42.678;23.332;2023-03-20T10:40:20;94679.13;;;20.20;52.46
13209;BME280;6669;42.678;23.332;2023-03-20T10:42:51;94680.56;;;20.63;52.16
13209;BME280;6669;42.678;23.332;2023-03-20T10:45:28;94662.59;;;20.89;51.45
13209;BME280;6669;42.678;23.332;2023-03-20T10:48:01;94655.44;;;21.18;50.73
13209;BME280;6669;42.678;23.332;2023-03-20T10:50:37;94656.53;;;21.51;49.95
13209;BME280;6669;42.678;23.332;2023-03-20T10:53:19;94644.91;;;21.52;49.63
13209;BME280;6669;42.678;23.332;2023-03-20T10:55:47;94647.31;;;21.37;49.55
13209;BME280;6669;42.678;23.332;2023-03-20T10:58:20;94641.91;;;21.32;48.48
13209;BME280;6669;42.678;23.332;2023-03-20T11:00:56;94646.13;;;21.45;48.76
13209;BME280;6669;42.678;23.332;2023-03-20T11:03:28;94641.72;;;21.50;47.79
13209;BME280;6669;42.678;23.332;2023-03-20T11:06:01;94643.50;;;21.96;46.78
13209;BME280;6669;42.678;23.332;2023-03-20T11:08:38;94644.84;;;21.81;47.05
13209;BME280;6669;42.678;23.332;2023-03-20T11:11:07;94634.09;;;22.27;45.85
13209;BME280;6669;42.678;23.332;2023-03-20T11:13:37;94633.00;;;22.40;44.63
13209;BME280;6669;42.678;23.332;2023-03-20T11:16:15;94620.19;;;22.15;45.29
13209;BME280;6669;42.678;23.332;2023-03-20T11:18:45;94613.22;;;22.31;45.90
13209;BME280;6669;42.678;23.332;2023-03-20T11:21:19;94597.34;;;22.75;45.33
13209;BME280;6669;42.678;23.332;2023-03-20T11:23:48;94617.47;;;22.98;45.25
13209;BME280;6669;42.678;23.332;2023-03-20T11:26:18;94607.94;;;23.25;44.63
13209;BME280;6669;42.678;23.332;2023-03-20T11:28:48;94608.03;;;23.08;43.78
13209;BME280;6669;42.678;23.332;2023-03-20T11:31:19;94607.06;;;22.92;44.33
13209;BME280;6669;42.678;23.332;2023-03-20T11:33:52;94599.81;;;23.37;43.05
13209;BME280;6669;42.678;23.332;2023-03-20T11:36:30;94597.53;;;23.50;43.38
13209;BME280;6669;42.678;23.332;2023-03-20T11:39:05;94590.69;;;23.92;42.69
13209;BME280;6669;42.678;23.332;2023-03-20T11:41:33;94585.19;;;23.66;43.76
13209;BME280;6669;42.678;23.332;2023-03-20T11:44:01;94569.13;;;23.89;42.60
13209;BME280;6669;42.678;23.332;2023-03-20T11:46:29;94578.69;;;24.38;41.90
13209;BME280;6669;42.678;23.332;2023-03-20T11:49:03;94565.06;;;24.19;40.33
13209;BME280;6669;42.678;23.332;2023-03-20T11:51:34;94540.91;;;24.25;41.08
13209;BME280;6669;42.678;23.332;2023-03-20T11:54:05;94556.75;;;24.68;40.98
13209;BME280;6669;42.678;23.332;2023-03-20T11:56:35;94558.63;;;24.78;39.97
13209;BME280;6669;42.678;23.332;2023-03-20T11:59:10;94551.72;;;24.77;40.56
13209;BME280;6669;42.678;23.332;2023-03-20T12:01:41;94555.72;;;24.85;40.10
13209;BME280;6669;42.678;23.332;2023-03-20T12:04:15;94544.16;;;24.43;39.97
13209;BME280;6669;42.678;23.332;2023-03-20T12:06:50;94538.97;;;24.94;39.70
13209;BME280;6669;42.678;23.332;2023-03-20T12:09:29;94535.81;;;25.39;39.69
13209;BME280;6669;42.678;23.332;2023-03-20T12:12:00;94521.72;;;25.07;38.88
13209;BME280;6669;42.678;23.332;2023-03-20T12:14:34;94522.00;;;25.52;38.38
13209;BME280;6669;42.678;23.332;2023-03-20T12:17:29;94523.19;;;26.01;38.22
13209;BME280;6669;42.678;23.332;2023-03-20T12:20:03;94522.31;;;26.26;37.44
13209;BME280;6669;42.678;23.332;2023-03-20T12:22:37;94521.47;;;26.41;37.50
13209;BME280;6669;42.678;23.332;2023-03-20T12:25:17;94511.38;;;26.28;36.56
13209;BME280;6669;42.678;23.332;2023-03-20T12:27:51;94518.59;;;26.72;36.98
13209;BME280;6669;42.678;23.332;2023-03-20T12:30:27;94509.19;;;26.40;36.84
13209;BME280;6669;42.678;23.332;2023-03-20T12:33:01;94512.25;;;26.68;36.69
13209;BME280;6669;42.678;23.332;2023-03-20T12:35:33;94520.25;;;26.68;36.02
13209;BME280;6669;42.678;23.332;2023-03-20T12:38:13;94503.75;;;26.61;35.94
13209;BME280;6669;42.678;23.332;2023-03-20T12:40:49;94501.75;;;26.42;35.69
13209;BME280;6669;42.678;23.332;2023-03-20T12:43:21;94494.28;;;26.39;36.05
13209;BME280;6669;42.678;23.332;2023-03-20T12:45:55;94497.06;;;26.64;35.55
13209;BME280;6669;42.678;23.332;2023-03-20T12:48:43;94493.88;;;26.67;35.26
13209;BME280;6669;42.678;23.332;2023-03-20T12:51:21;94481.09;;;26.58;34.01
13209;BME280;6669;42.678;23.332;2023-03-20T12:54:02;94477.88;;;27.06;33.49
13209;BME280;6669;42.678;23.332;2023-03-20T12:56:53;94474.06;;;26.83;33.43
13209;BME280;6669;42.678;23.332;2023-03-20T12:59:29;94475.31;;;26.91;33.10
13209;BME280;6669;42.678;23.332;2023-03-20T13:02:11;94467.94;;;26.78;34.07
13209;BME280;6669;42.678;23.332;2023-03-20T13:04:53;94473.50;;;27.16;33.70
13209;BME280;6669;42.678;23.332;2023-03-20T13:07:51;94472.09;;;26.94;33.41
13209;BME280;6669;42.678;23.332;2023-03-20T13:10:31;94465.84;;;26.69;34.39
13209;BME280;6669;42.678;23.332;2023-03-20T13:13:08;94452.22;;;26.31;33.55
13209;BME280;6669;42.678;23.332;2023-03-20T13:15:59;94454.34;;;25.69;34.23
13209;BME280;6669;42.678;23.332;2023-03-20T13:18:41;94454.03;;;25.81;34.27
13209;BME280;6669;42.678;23.332;2023-03-20T13:21:15;94442.03;;;25.83;34.33
13209;BME280;6669;42.678;23.332;2023-03-20T13:23:51;94443.19;;;26.27;34.24
13209;BME280;6669;42.678;23.332;2023-03-20T13:26:31;94439.59;;;26.47;34.52
13209;BME280;6669;42.678;23.332;2023-03-20T13:29:07;94426.31;;;26.42;33.74